createdAt,value
2023-03-29T00:00:15.741Z,43.70
2023-03-29T00:03:04.287Z,40.40
2023-03-29T00:05:35.012Z,41.20
2023-03-29T00:08:04.114Z,44.40
2023-03-29T00:10:33.649Z,34.00
2023-03-29T00:13:02.786Z,37.30
2023-03-29T00:15:30.761Z,35.90
2023-03-29T00:17:58.694Z,38.70
2023-03-29T00:20:26.951Z,36.40
2023-03-29T00:22:54.751Z,35.30
2023-03-29T00:25:22.716Z,42.80
2023-03-29T00:27:50.587Z,39.40
2023-03-29T00:30:18.818Z,35.40
2023-03-29T00:32:47.031Z,34.80
2023-03-29T00:35:15.114Z,38.40
2023-03-29T00:37:43.463Z,37.90
2023-03-29T00:40:11.773Z,41.30
2023-03-29T00:42:44.890Z,40.20
2023-03-29T00:45:12.586Z,39.00
2023-03-29T00:47:51.935Z,33.70
2023-03-29T00:50:40.419Z,29.60
2023-03-29T00:53:21.638Z,32.50
2023-03-29T00:55:59.515Z,38.30
2023-03-29T00:59:13.870Z,37.20
2023-03-29T01:01:57.183Z,34.50
2023-03-29T01:04:46.216Z,35.10
2023-03-29T01:07:22.993Z,29.20
2023-03-29T01:10:01.408Z,34.60
2023-03-29T01:12:35.933Z,33.00
2023-03-29T01:15:10.402Z,33.10
2023-03-29T01:17:41.748Z,32.50
2023-03-29T01:20:22.220Z,32.20
2023-03-29T01:23:26.932Z,32.90
2023-03-29T01:26:20.706Z,45.20
2023-03-29T01:28:59.244Z,32.70
2023-03-29T01:31:36.520Z,41.50
2023-03-29T01:34:18.079Z,29.10
2023-03-29T01:37:00.237Z,34.30
2023-03-29T01:39:28.015Z,42.10
2023-03-29T01:42:27.069Z,31.50
2023-03-29T01:45:23.083Z,34.40
2023-03-29T01:48:25.229Z,30.60
2023-03-29T01:51:07.126Z,33.70
2023-03-29T01:53:50.958Z,34.40
2023-03-29T01:56:26.352Z,38.40
2023-03-29T01:59:04.312Z,42.80
2023-03-29T02:01:40.257Z,47.50
2023-03-29T02:04:13.381Z,44.70
2023-03-29T02:06:42.240Z,48.20
2023-03-29T02:09:12.972Z,36.60
2023-03-29T02:11:42.982Z,38.90
2023-03-29T02:14:10.836Z,39.90
2023-03-29T02:16:40.318Z,41.60
2023-03-29T02:19:10.612Z,43.00
2023-03-29T02:22:05.787Z,40.60
2023-03-29T02:24:36.453Z,42.80
2023-03-29T02:27:04.759Z,46.00
2023-03-29T02:29:32.731Z,43.20
2023-03-29T02:32:13.192Z,46.50
2023-03-29T02:34:56.501Z,43.30
2023-03-29T02:37:30.047Z,40.80
2023-03-29T02:39:58.833Z,52.90
2023-03-29T02:42:28.488Z,40.10
2023-03-29T02:45:00.028Z,32.50
2023-03-29T02:47:38.288Z,45.90
2023-03-29T02:50:07.519Z,34.60
2023-03-29T02:52:43.109Z,31.70
2023-03-29T02:55:17.270Z,28.60
2023-03-29T02:57:45.461Z,31.30
2023-03-29T03:00:14.842Z,34.90
2023-03-29T03:02:43.177Z,40.40
2023-03-29T03:05:11.489Z,38.60
2023-03-29T03:07:40.613Z,34.70
2023-03-29T03:10:10.212Z,39.70
2023-03-29T03:12:38.691Z,36.10
2023-03-29T03:15:07.827Z,35.00
2023-03-29T03:17:40.249Z,36.90
2023-03-29T03:20:13.093Z,33.60
2023-03-29T03:22:49.523Z,36.70
2023-03-29T03:25:20.980Z,36.40
2023-03-29T03:27:50.283Z,36.90
2023-03-29T03:30:20.778Z,43.10
2023-03-29T03:33:07.855Z,42.60
2023-03-29T03:36:02.619Z,46.60
2023-03-29T03:38:32.578Z,33.40
2023-03-29T03:41:02.243Z,42.70
2023-03-29T03:43:31.127Z,39.80
2023-03-29T03:45:59.085Z,43.80
2023-03-29T03:48:27.270Z,43.60
2023-03-29T03:51:14.122Z,38.50
2023-03-29T03:53:42.268Z,41.10
2023-03-29T03:56:13.923Z,35.60
2023-03-29T03:59:01.061Z,31.80
2023-03-29T04:01:30.443Z,28.80
2023-03-29T04:04:11.864Z,35.90
2023-03-29T04:06:43.146Z,31.80
2023-03-29T04:09:35.549Z,32.40
2023-03-29T04:12:23.642Z,38.00
2023-03-29T04:14:52.117Z,30.30
2023-03-29T04:17:22.627Z,30.60
2023-03-29T04:19:55.648Z,34.10
2023-03-29T04:22:27.699Z,30.70
2023-03-29T04:24:55.564Z,33.60
2023-03-29T04:27:46.304Z,30.80
2023-03-29T04:30:36.477Z,30.40
2023-03-29T04:33:15.948Z,32.40
2023-03-29T04:35:47.725Z,34.50
2023-03-29T04:38:16.691Z,28.70
2023-03-29T04:40:45.578Z,30.60
2023-03-29T04:43:23.600Z,28.60
2023-03-29T04:45:59.528Z,31.10
2023-03-29T04:48:48.290Z,34.20
2023-03-29T04:51:17.609Z,24.70
2023-03-29T04:53:45.872Z,25.10
2023-03-29T04:56:13.692Z,27.50
2023-03-29T04:59:13.372Z,21.50
2023-03-29T05:01:41.513Z,28.90
2023-03-29T05:04:12.554Z,28.20
2023-03-29T05:06:45.084Z,27.40
2023-03-29T05:09:12.870Z,24.70
2023-03-29T05:11:52.006Z,23.50
2023-03-29T05:14:20.950Z,25.60
2023-03-29T05:16:48.988Z,24.20
2023-03-29T05:19:17.608Z,25.30
2023-03-29T05:21:50.093Z,20.90
2023-03-29T05:24:22.370Z,22.70
2023-03-29T05:27:13.470Z,23.90
2023-03-29T05:29:42.593Z,20.70
2023-03-29T05:32:22.924Z,20.30
2023-03-29T05:34:51.520Z,21.10
2023-03-29T05:37:19.900Z,24.20
2023-03-29T05:39:51.012Z,22.80
2023-03-29T05:42:22.540Z,22.00
2023-03-29T05:44:55.208Z,18.20
2023-03-29T05:47:23.677Z,18.30
2023-03-29T05:49:51.537Z,12.70
2023-03-29T05:52:24.624Z,26.80
2023-03-29T05:54:52.884Z,21.70
2023-03-29T05:57:22.025Z,21.60
2023-03-29T05:59:49.904Z,20.00
2023-03-29T06:02:18.838Z,28.20
2023-03-29T06:04:51.811Z,19.20
2023-03-29T06:07:38.365Z,20.50
2023-03-29T06:10:28.721Z,18.70
2023-03-29T06:13:06.037Z,21.60
2023-03-29T06:15:35.360Z,19.60
2023-03-29T06:18:06.455Z,23.70
2023-03-29T06:20:35.189Z,19.50
2023-03-29T06:23:08.585Z,20.80
2023-03-29T06:25:36.409Z,19.40
2023-03-29T06:28:04.497Z,26.50
2023-03-29T06:30:32.824Z,25.90
2023-03-29T06:33:01.634Z,23.60
2023-03-29T06:35:48.431Z,22.10
2023-03-29T06:38:21.189Z,25.30
2023-03-29T06:41:12.007Z,26.80
2023-03-29T06:43:51.599Z,25.10
2023-03-29T06:46:23.331Z,20.70
2023-03-29T06:48:56.310Z,25.60
2023-03-29T06:51:25.411Z,25.50
2023-03-29T06:53:53.425Z,25.30
2023-03-29T06:56:22.259Z,23.90
2023-03-29T06:58:59.544Z,31.80
2023-03-29T07:01:47.692Z,103.00
2023-03-29T07:04:25.027Z,27.90
2023-03-29T07:07:20.127Z,24.50
2023-03-29T07:09:54.470Z,22.10
2023-03-29T07:12:44.583Z,22.20
2023-03-29T07:15:13.186Z,23.70
2023-03-29T07:18:04.943Z,23.30
2023-03-29T07:20:33.726Z,23.80
2023-03-29T07:23:11.340Z,17.70
2023-03-29T07:25:39.403Z,19.80
2023-03-29T07:28:07.933Z,22.90
2023-03-29T07:30:37.194Z,41.70
2023-03-29T07:33:20.074Z,21.60
2023-03-29T07:36:00.923Z,20.30
2023-03-29T07:38:29.174Z,19.20
2023-03-29T07:41:05.788Z,20.80
2023-03-29T07:43:46.810Z,15.70
2023-03-29T07:46:17.049Z,21.30
2023-03-29T07:48:45.049Z,16.60
2023-03-29T07:51:16.413Z,20.20
2023-03-29T07:53:46.221Z,22.80
2023-03-29T07:56:36.278Z,20.20
2023-03-29T07:59:30.871Z,74.70
2023-03-29T08:02:11.148Z,57.20
2023-03-29T08:04:47.601Z,20.40
2023-03-29T08:07:20.066Z,19.80
2023-03-29T08:10:15.250Z,17.80
2023-03-29T08:13:10.570Z,19.30
2023-03-29T08:15:59.017Z,39.80
2023-03-29T08:18:34.932Z,15.70
2023-03-29T08:21:03.792Z,35.10
2023-03-29T08:23:32.497Z,23.70
2023-03-29T08:26:08.588Z,18.50
2023-03-29T08:28:36.524Z,19.00
2023-03-29T08:31:04.665Z,15.20
2023-03-29T08:33:32.897Z,15.80
2023-03-29T08:36:19.713Z,17.90
2023-03-29T08:38:48.165Z,14.50
2023-03-29T08:41:42.531Z,129.10
2023-03-29T08:44:36.258Z,58.00
2023-03-29T08:47:53.182Z,26.90
2023-03-29T08:50:27.232Z,13.10
2023-03-29T08:53:00.433Z,21.20
2023-03-29T08:55:49.064Z,13.60
2023-03-29T08:58:47.905Z,12.10
2023-03-29T09:01:15.880Z,10.60
2023-03-29T09:04:20.093Z,10.20
2023-03-29T09:06:52.933Z,12.10
2023-03-29T09:09:35.425Z,12.00
2023-03-29T09:12:41.060Z,10.90
2023-03-29T09:15:24.080Z,13.00
2023-03-29T09:18:37.631Z,9.50
2023-03-29T09:21:41.784Z,7.80
2023-03-29T09:24:36.544Z,10.90
2023-03-29T09:27:26.675Z,9.50
2023-03-29T09:30:26.295Z,34.60
2023-03-29T09:33:31.459Z,38.90
2023-03-29T09:36:25.270Z,10.50
2023-03-29T09:38:56.898Z,8.00
2023-03-29T09:41:58.351Z,7.60
2023-03-29T09:44:35.780Z,8.10
2023-03-29T09:47:17.255Z,11.00
2023-03-29T09:49:51.554Z,9.70
2023-03-29T09:52:20.870Z,8.60
2023-03-29T09:54:59.773Z,14.70
2023-03-29T09:57:54.010Z,10.00
2023-03-29T10:00:22.365Z,10.90
2023-03-29T10:02:57.755Z,7.90
2023-03-29T10:05:39.962Z,9.60
2023-03-29T10:08:40.758Z,10.70
2023-03-29T10:11:35.550Z,9.10
2023-03-29T10:14:12.365Z,8.70
2023-03-29T10:16:46.070Z,9.30
2023-03-29T10:19:27.300Z,7.70
2023-03-29T10:21:59.709Z,11.60
2023-03-29T10:24:28.245Z,8.80
2023-03-29T10:27:11.642Z,9.50
2023-03-29T10:29:43.219Z,9.00
2023-03-29T10:32:17.233Z,10.40
2023-03-29T10:34:50.444Z,11.00
2023-03-29T10:37:19.587Z,10.30
2023-03-29T10:39:48.827Z,8.00
2023-03-29T10:42:23.599Z,9.60
2023-03-29T10:44:58.445Z,9.50
2023-03-29T10:47:34.351Z,9.20
2023-03-29T10:50:07.384Z,8.00
2023-03-29T10:55:03.198Z,9.20
2023-03-29T10:58:00.489Z,8.30
2023-03-29T11:00:40.704Z,6.60
2023-03-29T11:03:44.755Z,12.50
2023-03-29T11:06:15.301Z,26.90
2023-03-29T11:09:44.750Z,35.00
2023-03-29T11:12:26.883Z,10.20
2023-03-29T11:15:14.620Z,8.10
2023-03-29T11:18:03.747Z,9.90
2023-03-29T11:20:52.710Z,15.90
2023-03-29T11:23:43.576Z,28.10
2023-03-29T11:26:28.423Z,8.10
2023-03-29T11:29:27.108Z,9.00
2023-03-29T11:32:41.158Z,7.60
2023-03-29T11:35:27.366Z,11.80
2023-03-29T11:38:25.028Z,8.10
2023-03-29T11:41:10.790Z,7.40
2023-03-29T11:43:44.076Z,6.30
2023-03-29T11:46:23.475Z,7.80
2023-03-29T11:49:10.054Z,5.30
2023-03-29T11:51:45.897Z,7.20
2023-03-29T11:54:41.105Z,6.90
2023-03-29T11:57:35.079Z,6.70
2023-03-29T12:00:24.855Z,6.20
2023-03-29T12:03:29.153Z,8.20
2023-03-29T12:06:06.519Z,5.10
2023-03-29T12:08:46.208Z,7.30
2023-03-29T12:11:27.298Z,50.20
2023-03-29T12:14:21.210Z,35.90
2023-03-29T12:16:56.991Z,9.30
2023-03-29T12:19:31.405Z,9.30
2023-03-29T12:22:01.204Z,6.00
2023-03-29T12:24:32.537Z,13.90
2023-03-29T12:27:29.123Z,10.10
2023-03-29T12:31:02.861Z,9.30
2023-03-29T12:33:38.204Z,5.60
2023-03-29T12:36:51.985Z,6.60
2023-03-29T12:39:39.654Z,7.20
2023-03-29T12:42:26.271Z,7.70
2023-03-29T12:45:31.891Z,7.10
2023-03-29T12:48:00.708Z,7.40
2023-03-29T12:50:44.353Z,6.30
2023-03-29T12:53:39.103Z,7.50
2023-03-29T12:56:15.699Z,6.20
2023-03-29T12:59:07.530Z,8.50
2023-03-29T13:01:41.392Z,6.50
2023-03-29T13:04:20.232Z,5.70
2023-03-29T13:07:03.484Z,6.40
2023-03-29T13:09:52.798Z,6.90
2023-03-29T13:12:41.817Z,5.30
2023-03-29T13:15:16.547Z,6.20
2023-03-29T13:18:04.021Z,5.30
2023-03-29T13:20:50.699Z,10.90
2023-03-29T13:23:43.729Z,7.80
2023-03-29T13:26:33.043Z,6.80
2023-03-29T13:29:34.765Z,9.00
2023-03-29T13:32:35.951Z,10.20
2023-03-29T13:35:28.792Z,11.30
2023-03-29T13:38:20.144Z,8.60
2023-03-29T13:40:54.018Z,11.10
2023-03-29T13:43:56.435Z,5.80
2023-03-29T13:46:43.489Z,6.50
2023-03-29T13:49:26.253Z,7.50
2023-03-29T13:51:54.214Z,6.50
2023-03-29T13:54:33.491Z,7.90
2023-03-29T13:57:15.647Z,5.30
2023-03-29T14:00:17.075Z,10.10
2023-03-29T14:02:56.670Z,9.20
2023-03-29T14:05:36.011Z,9.20
2023-03-29T14:08:30.458Z,4.90
2023-03-29T14:11:03.211Z,8.90
2023-03-29T14:16:04.330Z,24.30
2023-03-29T14:18:38.041Z,26.90
2023-03-29T14:21:06.869Z,8.20
2023-03-29T14:23:37.651Z,13.70
2023-03-29T14:26:18.922Z,8.50
2023-03-29T14:28:51.400Z,8.60
2023-03-29T14:31:31.307Z,6.70
2023-03-29T14:34:01.225Z,10.00
2023-03-29T14:36:33.136Z,11.60
2023-03-29T14:39:15.255Z,21.10
2023-03-29T14:41:54.624Z,30.10
2023-03-29T14:44:27.354Z,11.40
2023-03-29T14:46:56.217Z,7.00
2023-03-29T14:49:24.513Z,9.40
2023-03-29T14:51:54.737Z,6.30
2023-03-29T14:54:27.312Z,7.00
2023-03-29T14:56:56.158Z,8.60
2023-03-29T14:59:35.467Z,7.20
2023-03-29T15:02:04.124Z,5.50
2023-03-29T15:04:35.083Z,27.10
2023-03-29T15:07:04.962Z,48.30
2023-03-29T15:09:35.093Z,7.40
2023-03-29T15:12:03.488Z,5.90
2023-03-29T15:14:36.832Z,6.70
2023-03-29T15:17:36.360Z,6.90
2023-03-29T15:20:27.227Z,3.70
2023-03-29T15:23:20.684Z,3.60
2023-03-29T15:26:06.988Z,5.30
2023-03-29T15:28:44.628Z,4.00
2023-03-29T15:31:18.395Z,3.10
2023-03-29T15:33:46.706Z,5.10
2023-03-29T15:36:15.186Z,4.80
2023-03-29T15:38:45.427Z,5.40
2023-03-29T15:41:14.544Z,5.30
2023-03-29T15:43:43.133Z,6.40
2023-03-29T15:46:14.147Z,6.50
2023-03-29T15:48:43.023Z,11.90
2023-03-29T15:51:12.488Z,4.80
2023-03-29T15:53:40.930Z,5.60
2023-03-29T15:56:11.502Z,6.20
2023-03-29T15:58:39.590Z,6.90
2023-03-29T16:01:35.692Z,3.00
2023-03-29T16:04:07.844Z,2.40
2023-03-29T16:06:36.486Z,4.10
2023-03-29T16:09:06.942Z,2.30
2023-03-29T16:11:35.272Z,3.70
2023-03-29T16:14:11.589Z,2.90
2023-03-29T16:16:39.402Z,3.90
2023-03-29T16:19:07.166Z,5.50
2023-03-29T16:21:35.339Z,2.00
2023-03-29T16:24:03.986Z,6.90
2023-03-29T16:26:32.503Z,10.60
2023-03-29T16:29:00.383Z,13.00
2023-03-29T16:31:28.284Z,15.00
2023-03-29T16:33:56.153Z,3.50
2023-03-29T16:36:24.037Z,6.50
2023-03-29T16:38:52.037Z,4.10
2023-03-29T16:41:19.848Z,7.40
2023-03-29T16:43:47.914Z,5.60
2023-03-29T16:46:15.964Z,4.80
2023-03-29T16:48:43.957Z,4.00
2023-03-29T16:51:11.902Z,6.40
2023-03-29T16:53:40.411Z,7.90
2023-03-29T16:56:08.630Z,7.20
2023-03-29T16:58:39.343Z,5.90
2023-03-29T17:01:16.581Z,22.90
2023-03-29T17:03:44.610Z,15.40
2023-03-29T17:06:12.735Z,6.30
2023-03-29T17:08:42.319Z,6.30
2023-03-29T17:11:11.463Z,8.30
2023-03-29T17:13:40.304Z,22.60
2023-03-29T17:16:08.501Z,16.20
2023-03-29T17:18:36.699Z,6.50
2023-03-29T17:21:05.059Z,9.80
2023-03-29T17:23:33.079Z,6.10
2023-03-29T17:26:01.965Z,9.50
2023-03-29T17:28:30.156Z,6.20
2023-03-29T17:30:58.297Z,9.10
2023-03-29T17:33:26.469Z,8.70
2023-03-29T17:35:54.535Z,9.60
2023-03-29T17:38:22.479Z,5.50
2023-03-29T17:40:54.503Z,7.70
2023-03-29T17:43:22.893Z,46.40
2023-03-29T17:45:53.011Z,42.70
2023-03-29T17:48:23.108Z,10.70
2023-03-29T17:50:53.038Z,10.40
2023-03-29T17:53:21.599Z,8.40
2023-03-29T17:55:49.755Z,6.90
2023-03-29T17:58:19.873Z,7.90
2023-03-29T18:00:48.038Z,6.00
2023-03-29T18:03:16.969Z,12.10
2023-03-29T18:05:48.424Z,8.80
2023-03-29T18:08:16.978Z,9.00
2023-03-29T18:10:47.559Z,15.20
2023-03-29T18:13:16.281Z,10.50
2023-03-29T18:15:45.406Z,13.10
2023-03-29T18:18:13.555Z,9.40
2023-03-29T18:20:45.448Z,16.30
2023-03-29T18:23:13.787Z,13.20
2023-03-29T18:25:42.052Z,16.10
2023-03-29T18:28:10.480Z,12.90
2023-03-29T18:30:38.633Z,68.80
2023-03-29T18:33:06.835Z,49.40
2023-03-29T18:35:35.283Z,11.80
2023-03-29T18:38:04.588Z,11.30
2023-03-29T18:40:34.604Z,16.80
2023-03-29T18:43:02.775Z,12.30
2023-03-29T18:45:31.477Z,8.60
2023-03-29T18:47:59.692Z,10.00
2023-03-29T18:50:27.946Z,14.40
2023-03-29T18:52:55.824Z,11.20
2023-03-29T18:55:23.892Z,10.40
2023-03-29T18:57:51.944Z,33.80
2023-03-29T19:00:19.921Z,13.90
2023-03-29T19:02:48.351Z,13.90
2023-03-29T19:05:16.321Z,11.30
2023-03-29T19:07:44.453Z,11.60
2023-03-29T19:10:12.312Z,20.60
2023-03-29T19:12:40.182Z,18.60
2023-03-29T19:15:09.541Z,29.60
2023-03-29T19:17:37.362Z,17.60
2023-03-29T19:20:09.847Z,14.20
2023-03-29T19:22:38.378Z,17.70
2023-03-29T19:25:07.462Z,16.40
2023-03-29T19:27:35.344Z,15.20
2023-03-29T19:30:04.299Z,13.10
2023-03-29T19:32:33.653Z,15.20
2023-03-29T19:35:01.855Z,54.00
2023-03-29T19:37:29.978Z,12.40
2023-03-29T19:39:57.828Z,13.20
2023-03-29T19:42:25.656Z,11.40
2023-03-29T19:44:53.503Z,13.90
2023-03-29T19:47:21.312Z,13.10
2023-03-29T19:49:49.234Z,11.00
2023-03-29T19:52:17.022Z,12.30
2023-03-29T19:54:44.935Z,13.90
2023-03-29T19:57:12.867Z,96.90
2023-03-29T19:59:41.025Z,24.50
2023-03-29T20:02:11.324Z,15.90
2023-03-29T20:04:39.623Z,16.10
2023-03-29T20:07:07.683Z,12.50
2023-03-29T20:09:35.568Z,13.90
2023-03-29T20:12:04.600Z,11.60
2023-03-29T20:14:34.211Z,17.00
2023-03-29T20:17:02.199Z,12.00
2023-03-29T20:19:30.011Z,16.20
2023-03-29T20:21:58.814Z,14.80
2023-03-29T20:24:26.707Z,17.00
2023-03-29T20:26:55.179Z,16.50
2023-03-29T20:29:22.991Z,14.90
2023-03-29T20:31:50.807Z,15.00
2023-03-29T20:34:18.786Z,18.50
2023-03-29T20:36:46.970Z,12.90
2023-03-29T20:39:18.630Z,18.00
2023-03-29T20:41:49.164Z,18.20
2023-03-29T20:44:18.334Z,15.00
2023-03-29T20:46:54.261Z,17.00
2023-03-29T20:49:26.564Z,22.70
2023-03-29T20:52:00.926Z,16.70
2023-03-29T20:54:28.832Z,32.80
2023-03-29T20:56:56.764Z,23.00
2023-03-29T20:59:24.949Z,14.70
2023-03-29T21:01:53.200Z,20.30
2023-03-29T21:04:21.456Z,15.60
2023-03-29T21:06:49.702Z,15.60
2023-03-29T21:09:20.899Z,14.70
2023-03-29T21:11:49.876Z,16.10
2023-03-29T21:14:19.469Z,23.70
2023-03-29T21:16:50.361Z,17.70
2023-03-29T21:19:18.699Z,15.10
2023-03-29T21:21:48.211Z,16.10
2023-03-29T21:24:16.045Z,17.20
2023-03-29T21:26:44.557Z,16.00
2023-03-29T21:29:12.515Z,31.00
2023-03-29T21:31:40.644Z,16.30
2023-03-29T21:34:09.000Z,20.50
2023-03-29T21:36:36.843Z,15.50
2023-03-29T21:39:04.721Z,15.70
2023-03-29T21:41:32.681Z,14.80
2023-03-29T21:44:00.614Z,15.60
2023-03-29T21:46:28.660Z,19.20
2023-03-29T21:48:56.555Z,12.50
2023-03-29T21:51:24.504Z,16.10
2023-03-29T21:53:52.373Z,18.70
2023-03-29T21:56:20.253Z,38.90
2023-03-29T21:58:48.013Z,13.20
2023-03-29T22:01:16.310Z,16.90
2023-03-29T22:03:44.374Z,16.10
2023-03-29T22:06:14.604Z,12.90
2023-03-29T22:08:42.492Z,16.40
2023-03-29T22:11:16.437Z,13.40
2023-03-29T22:13:44.830Z,55.80
2023-03-29T22:16:16.346Z,13.00
2023-03-29T22:18:49.461Z,16.10
2023-03-29T22:21:26.731Z,41.00
2023-03-29T22:23:56.968Z,25.00
2023-03-29T22:26:29.075Z,20.80
2023-03-29T22:28:59.680Z,15.70
2023-03-29T22:31:29.534Z,20.90
2023-03-29T22:33:58.486Z,14.60
2023-03-29T22:36:29.975Z,16.30
2023-03-29T22:38:58.000Z,15.80
2023-03-29T22:41:28.139Z,20.10
2023-03-29T22:43:59.200Z,22.10
2023-03-29T22:46:27.517Z,16.60
2023-03-29T22:48:55.668Z,17.30
2023-03-29T22:51:23.639Z,15.00
2023-03-29T22:53:51.721Z,19.00
2023-03-29T22:56:19.709Z,32.00
2023-03-29T22:58:47.522Z,17.30
2023-03-29T23:01:15.736Z,15.90
2023-03-29T23:03:43.586Z,16.40
2023-03-29T23:06:11.568Z,17.50
2023-03-29T23:08:39.378Z,18.70
2023-03-29T23:11:11.436Z,23.80
2023-03-29T23:13:41.277Z,21.90
2023-03-29T23:16:09.567Z,23.00
2023-03-29T23:18:37.651Z,17.90
2023-03-29T23:21:06.789Z,21.80
2023-03-29T23:23:35.552Z,20.40
2023-03-29T23:26:03.954Z,19.50
2023-03-29T23:28:34.315Z,21.40
2023-03-29T23:31:18.291Z,23.20
2023-03-29T23:33:46.326Z,21.50
2023-03-29T23:36:17.382Z,18.80
2023-03-29T23:38:46.918Z,17.40
2023-03-29T23:41:16.696Z,25.30
2023-03-29T23:43:46.970Z,22.70
2023-03-29T23:46:17.112Z,17.50
2023-03-29T23:48:48.868Z,16.70
2023-03-29T23:51:22.610Z,16.90
2023-03-29T23:53:51.128Z,20.30
2023-03-29T23:56:19.022Z,20.20
2023-03-29T23:58:47.260Z,17.70
